Tiempo atmosférico en la estación meteorológica de Olvera, Cádiz (540 m.)



Fecha
DESCASC
Temp. máxima en grados centígrados (hora)
DESCASC
Temp. mínima en grados centígrados (hora)
DESCASC
Temp. media en grados centígrados
DESCASC
Racha de viento máxima en m/sg (hora)
DESCASC
Velocidad máxima media en intervalos de 10 minutos(hora)
DESCASC
Precipitaciones diarias en mm
DESCASC
Precipitaciones de 00:00 a 06:00 en mm
DESCASC
Precipitaciones de 06:00 a 12:00 en mm
DESCASC
Precipitaciones de 12:00 a 18:00 en mm
DESCASC
Precipitaciones de 18:00 a 24:00 en mm
DESCASC
22-04-2019 19.7 (17:00) 8.9 (08:10) 14.3 13.33 (19:00) 8.61 (17:40) 0 0 0 0 0
21-04-2019 16 (16:00) 9.5 (05:20) 12.8 6.67 (16:50) 3.61 (16:50) 0.4 0 0.2 0.2 0
20-04-2019 17.3 (16:20) 7.3 (06:10) 12.3 8.06 (18:50) 4.72 (15:10) 5.2 0.2 0 0 5
19-04-2019 18.1 (17:10) 6.7 (07:50) 12.4 6.67 (13:30) 3.33 (17:00) 11 0 0 0.2 10.8
18-04-2019 15.9 (17:50) 8.2 (00:00) 12 12.5 (18:20) 7.78 (18:20) 11.6 0.2 8.2 0 3.2
17-04-2019 19.4 (14:20) 11.9 (00:00) 15.6 12.5 (09:40) 5.56 (19:00) 0 0 0 0 0
16-04-2019 25.5 (18:00) 8.7 (00:00) 17.1 7.22 (21:50) 3.61 (18:10) 0 0 0 0 0
15-04-2019 -- (--) -- (--) -- 13.33 (14:50) 9.17 (18:00) 0 0 0 0 0
14-04-2019 25.4 (17:20) 10 (00:00) 17.7 6.11 (14:30) 3.89 (14:30) 0 0 0 0 0
13-04-2019 21.7 (16:00) 8.3 (00:00) 15 9.17 (15:00) 3.89 (17:00) 0 0 0 0 0
12-04-2019 20.2 (16:50) 7.1 (00:00) 13.7 9.44 (15:40) 4.17 (14:10) 0 0 0 0 0
11-04-2019 18 (17:40) 6 (00:00) 12 8.33 (13:20) 4.72 (14:30) 0 0 0 0 0
10-04-2019 16.6 (18:40) 5.9 (00:00) 11.3 11.11 (14:50) 6.67 (18:10) 0 0 0 0 0
09-04-2019 15.6 (15:50) 7.4 (00:00) 11.5 12.78 (16:00) 6.67 (20:00) 0 0 0 0 0
08-04-2019 13.8 (12:30) 10.3 (00:00) 12.1 12.5 (16:50) 8.33 (15:10) 1.8 0.2 0.2 1.4 0
07-04-2019 11.7 (19:50) 7.3 (00:00) 9.5 13.06 (19:20) 8.06 (19:20) 8.8 0 1.8 0.8 6.2
06-04-2019 11.1 (15:50) 5.7 (00:00) 8.4 18.06 (19:20) 10 (19:20) 3.8 0 0.6 2.4 0.8
05-04-2019 10.8 (18:20) 6.8 (00:00) 8.8 15.28 (17:50) 9.17 (19:40) 14.2 0 10.8 3.4 0
04-04-2019 16.8 (16:30) 4.9 (00:00) 10.8 11.11 (20:10) 7.78 (18:50) 0 0 0 0 0
03-04-2019 20 (15:50) 8.2 (00:00) 14.1 11.67 (19:20) 6.67 (19:00) 0 0 0 0 0
02-04-2019 19.9 (16:50) 6.9 (00:00) 13.4 7.22 (16:50) 3.89 (17:00) 0 0 0 0 0
01-04-2019 16.4 (16:40) 9.4 (00:00) 12.9 9.17 (16:10) 6.11 (16:10) 0.2 0 0.2 0 0
31-03-2019 19.1 (16:10) 10.3 (00:00) 14.7 10.56 (18:10) 6.67 (18:10) 10 1.6 0.8 0.2 7.4
30-03-2019 19.4 (14:10) 10 (00:00) 14.7 11.11 (07:10) 4.17 (13:00) 0 0 0 0 0
29-03-2019 19.3 (15:50) 8.4 (00:00) 13.8 13.61 (00:20) 6.11 (00:10) 0 0 0 0 0
28-03-2019 16.8 (16:30) 8.2 (00:00) 12.5 16.11 (15:40) 7.5 (17:20) 0 0 0 0 0
27-03-2019 17 (14:10) 9.8 (00:00) 13.4 15 (02:50) 6.67 (03:00) 0 0 0 0 0
26-03-2019 22 (13:40) 12.3 (00:00) 17.2 12.5 (12:10) 6.39 (11:50) 0 0 0 0 0
25-03-2019 -- (--) -- (--) -- -- (--) -- (--) -- -- -- -- 0

Gráficas

Temp. máximas Temp. mínimas Temp. medias Precipitaciones Rachas de viento máximas Velocidades máximas media en intervalos de 10 minutos

Datos horarios

Fecha y hora oficial Temperatura (ºC) Velocidad del viento (km/h) Dirección del viento Racha (km/h) Dirección de racha Precipitación (mm) Presión (hPa) Tendencia (hPa) Humedad (%)
2019-04-23 23:00:00 8.5 18 Sudoeste 33 Oeste 0 -- -- 82
2019-04-23 22:00:00 8.7 22 Sudoeste 40 Sudoeste 0.4 -- -- 80
2019-04-23 21:00:00 9.3 26 Sudoeste 44 Sudoeste 0 -- -- 74
2019-04-23 20:00:00 10.2 19 Sudoeste 40 Sudoeste 0 -- -- 72
2019-04-23 19:00:00 11.6 28 Sudoeste 42 Oeste 0 -- -- 61
2019-04-23 18:00:00 12.9 23 Oeste 40 Sudoeste 0 -- -- 58
2019-04-23 17:00:00 12.1 25 Oeste 48 Sudoeste 0 -- -- 60
2019-04-23 16:00:00 13.6 30 Sudoeste 49 Sudoeste 0 -- -- 57
2019-04-23 15:00:00 12.8 26 Sudoeste 44 Sudoeste 0 -- -- 56
2019-04-23 14:00:00 11.9 17 Oeste 37 Oeste 0 -- -- 61
2019-04-23 13:00:00 11.7 17 Oeste 38 Oeste 0 -- -- 65
2019-04-23 12:00:00 10.8 17 Oeste 32 Oeste 0 -- -- 75
2019-04-23 11:00:00 8.7 15 Oeste 26 Sudoeste 0 -- -- 88
2019-04-23 10:00:00 7.4 16 Oeste 28 Oeste 0.4 -- -- 91
2019-04-23 09:00:00 7.4 13 Sudoeste 33 Oeste 2.8 -- -- 95
2019-04-23 08:00:00 9.4 17 Sudoeste 36 Oeste 5.8 -- -- 95
2019-04-23 07:00:00 11.3 17 Sudoeste 36 Sudoeste 0.6 -- -- 84
2019-04-23 06:00:00 11.4 3 Sur 33 Sudoeste 0 -- -- 84
2019-04-23 05:00:00 11.4 21 Sudoeste 50 Oeste 0 -- -- 83
2019-04-23 04:00:00 11.5 33 Sudoeste 47 Sudoeste 0 -- -- 86
2019-04-23 03:00:00 12.3 23 Sudoeste 45 Sudoeste 0 -- -- 81
2019-04-23 02:00:00 12.3 18 Sudoeste 36 Sudoeste 0 -- -- 81
2019-04-23 01:00:00 12.1 21 Sudoeste 42 Sudoeste 0 -- -- 81
2019-04-23 00:00:00 12.5 19 Sudoeste 37 Sudoeste 0 -- -- 81
2019-04-22 23:00:00 12.2 16 Sudoeste 34 Oeste 0 -- -- 85
2019-04-22 22:00:00 13 18 Sudoeste 36 Sudoeste 0 -- -- 77
2019-04-22 21:00:00 13.8 19 Sudoeste 41 Sudoeste 0 -- -- 72
2019-04-22 20:00:00 16 29 Sudoeste 47 Sudoeste 0 -- -- 64
2019-04-22 19:00:00 17.9 30 Sudoeste 48 Sudoeste 0 -- -- 54
2019-04-22 18:00:00 19.3 28 Sudoeste 46 Sudoeste 0 -- -- 55
2019-04-22 17:00:00 19.7 27 Sudoeste 39 Oeste 0 -- -- 53
2019-04-22 16:00:00 19.4 20 Sudoeste 35 Oeste 0 -- -- 57
2019-04-22 15:00:00 18.7 17 Oeste 33 Sudoeste 0 -- -- 55
2019-04-22 14:00:00 18 13 Oeste 28 Oeste 0 -- -- 57
2019-04-22 13:00:00 16.6 10 Oeste 19 Sudoeste 0 -- -- 61
2019-04-22 12:00:00 15.4 10 Oeste 18 Oeste 0 -- -- 60
2019-04-22 11:00:00 14.6 8 Oeste 13 Oeste 0 -- -- 63
2019-04-22 10:00:00 12.7 0 Calma 8 Este 0 -- -- 72
2019-04-22 09:00:00 9.9 0 Calma 7 Este 0 -- -- 86
2019-04-22 08:00:00 9 4 Este 6 Sudeste 0 -- -- 87
2019-04-22 07:00:00 9.3 0 Calma -- -- 0 -- -- 85
2019-04-22 06:00:00 9.5 0 Calma 3 Sudoeste 0 -- -- 83
2019-04-22 05:00:00 9.8 0 Calma 5 Sudoeste 0 -- -- 81
2019-04-22 04:00:00 9.9 2 Oeste 10 Noroeste 0 -- -- 81
2019-04-22 03:00:00 10.3 6 Oeste 11 Oeste 0 -- -- 80
2019-04-22 02:00:00 10.5 8 Noroeste 13 Noroeste 0 -- -- 80
2019-04-22 01:00:00 11 2 Noroeste 7 Noroeste 0 -- -- 76
2019-04-22 00:00:00 11.2 2 Nordeste 8 Nordeste 0 -- -- 76
2019-04-21 23:00:00 11.2 4 Nordeste 7 Nordeste 0 -- -- 76
2019-04-21 22:00:00 11.8 3 Norte 9 Nordeste 0 -- -- 76
2019-04-21 21:00:00 12.5 2 Nordeste 14 Nordeste 0 -- -- 76
2019-04-21 20:00:00 13 5 Este 13 Nordeste 0 -- -- 72
2019-04-21 19:00:00 13.7 6 Norte 17 Norte 0 -- -- 73
2019-04-21 18:00:00 14.8 11 Norte 23 Norte 0 -- -- 71
2019-04-21 17:00:00 14.4 10 Nordeste 24 Nordeste 0 -- -- 72
2019-04-21 16:00:00 16 5 Norte 16 Nordeste 0 -- -- 72
2019-04-21 15:00:00 13.4 10 Nordeste 20 Nordeste 0 -- -- 78
2019-04-21 14:00:00 13.1 7 Norte 18 Oeste 0 -- -- 81
2019-04-21 13:00:00 12.8 11 Noroeste 18 Noroeste 0.2 -- -- 86
2019-04-21 12:00:00 12.7 3 Noroeste 6 Norte 0.2 -- -- 90
2019-04-21 11:00:00 11.3 2 Norte 6 Norte 0 -- -- 92
2019-04-21 10:00:00 10.5 0 Calma 5 Sudoeste 0 -- -- 92
2019-04-21 09:00:00 10.4 0 Calma 5 Noroeste 0 -- -- 93
2019-04-21 08:00:00 9.8 2 Este 5 Nordeste 0 -- -- 91
2019-04-21 07:00:00 9.8 3 Este 7 Este 0 -- -- 89
2019-04-21 06:00:00 9.6 0 Calma 8 Este 0 -- -- 90
2019-04-21 05:00:00 9.7 3 Sudeste 10 Sudeste 0 -- -- 90
2019-04-21 04:00:00 10.1 6 Este 8 Este 0 -- -- 88
2019-04-21 03:00:00 10.4 4 Nordeste 15 Nordeste 0 -- -- 88
2019-04-21 02:00:00 11.2 7 Este 12 Este 0 -- -- 89
2019-04-21 01:00:00 11.4 3 Nordeste 13 Este 0 -- -- 92
2019-04-21 00:00:00 11.5 3 Este 12 Sudeste 0 -- -- 94
2019-04-20 23:00:00 11.6 5 Este 12 Este 1.2 -- -- 92
2019-04-20 22:00:00 11.9 5 Nordeste 8 Nordeste 0.2 -- -- 91
2019-04-20 21:00:00 11.7 5 Este 14 Nordeste 0 -- -- 89
2019-04-20 20:00:00 11.4 9 Nordeste 22 Nordeste 2.4 -- -- 92
2019-04-20 19:00:00 13 14 Nordeste 29 Nordeste 1.2 -- -- 88
2019-04-20 18:00:00 16.8 9 Nordeste 21 Nordeste 0 -- -- 59
2019-04-20 17:00:00 16.8 12 Este 25 Este 0 -- -- 60
2019-04-20 16:00:00 17.1 9 Nordeste 28 Este 0 -- -- 62
2019-04-20 15:00:00 16.1 14 Nordeste 26 Nordeste 0 -- -- 69
2019-04-20 14:00:00 15 10 Nordeste 24 Nordeste 0 -- -- 72
2019-04-20 13:00:00 13.8 12 Nordeste 22 Nordeste 0 -- -- 77
2019-04-20 12:00:00 11.4 9 Nordeste 15 Nordeste 0 -- -- 87
2019-04-20 11:00:00 10.3 0 Calma 23 Este 0 -- -- 86
2019-04-20 10:00:00 9.9 9 Nordeste 23 Nordeste 0 -- -- 87
2019-04-20 09:00:00 7.9 0 Calma 10 Sudeste 0 -- -- 95
2019-04-20 08:00:00 7.9 3 Nordeste 7 Nordeste 0 -- -- 94
2019-04-20 07:00:00 8 4 Norte 13 Este 0 -- -- 93
2019-04-20 06:00:00 7.5 5 Sudeste 12 Este 0.2 -- -- 92
2019-04-20 05:00:00 8.2 3 Sudeste 9 Este 0 -- -- 91
2019-04-20 04:00:00 8.2 7 Nordeste 13 Nordeste 0 -- -- 92
2019-04-20 03:00:00 8 3 Este 11 Este 0 -- -- 92
2019-04-20 02:00:00 8.9 3 Este 9 Sudeste 0 -- -- 87
2019-04-20 01:00:00 9.1 4 Nordeste 9 Este 0 -- -- 90
2019-04-20 00:00:00 9.5 5 Este 10 Este 0 -- -- 94
2019-04-19 23:00:00 9.7 2 Sur 5 Sur 1.2 -- -- 94
2019-04-19 22:00:00 9.9 2 Sudeste 13 Nordeste 1.8 -- -- 92
2019-04-19 21:00:00 10.3 8 Norte 22 Norte 0.6 -- -- 88
2019-04-19 20:00:00 10.9 5 Este 14 Este 4 -- -- 89
2019-04-19 19:00:00 12.8 12 Nordeste 22 Nordeste 3.2 -- -- 73
2019-04-19 18:00:00 16 6 Oeste 23 Sudoeste 0 -- -- 55
2019-04-19 17:00:00 17.5 12 Sudoeste 19 Sudoeste 0 -- -- 51
2019-04-19 16:00:00 16.7 6 Oeste 15 Noroeste 0 -- -- 54
2019-04-19 15:00:00 13.4 5 Oeste 13 Oeste 0 -- -- 72
2019-04-19 14:00:00 12.4 9 Norte 24 Noroeste 0.2 -- -- 76
2019-04-19 13:00:00 13.7 7 Nordeste 15 Nordeste 0 -- -- 68
2019-04-19 12:00:00 15.1 3 Norte 10 Noroeste 0 -- -- 66
2019-04-19 11:00:00 13.9 6 Norte 12 Norte 0 -- -- 73
2019-04-19 10:00:00 11.4 0 Calma 9 Este 0 -- -- 81
2019-04-19 09:00:00 8.4 0 Calma 12 Este 0 -- -- 90
2019-04-19 08:00:00 6.7 8 Este 12 Sudeste 0 -- -- 92
2019-04-19 07:00:00 7.6 5 Este 10 Este 0 -- -- 91
2019-04-19 06:00:00 7.2 5 Este 10 Este 0 -- -- 93
2019-04-19 05:00:00 7.6 6 Este 9 Este 0 -- -- 91
2019-04-19 04:00:00 8.2 0 Calma 7 Sudeste 0 -- -- 91
2019-04-19 03:00:00 8.4 4 Sudeste 6 Sudeste 0 -- -- 88
2019-04-19 02:00:00 7.9 3 Este 9 Este 0 -- -- 91
2019-04-19 01:00:00 8 3 Sudeste 7 Sudeste 0 -- -- 91
2019-04-19 00:00:00 8.2 0 Calma 4 Sudeste 0 -- -- 91
2019-04-18 23:00:00 8.3 4 Este 8 Sudeste 0 -- -- 91
2019-04-18 22:00:00 8.5 3 Este 9 Sudeste 0 -- -- 92
2019-04-18 21:00:00 9 3 Sudeste 10 Este 0.6 -- -- 93
2019-04-18 20:00:00 9 3 Sudoeste 16 Oeste 2.6 -- -- 92
2019-04-18 19:00:00 9.3 12 Oeste 45 Noroeste 0 -- -- 85
2019-04-18 18:00:00 15.5 26 Sudoeste 40 Sudoeste 0 -- -- 62
2019-04-18 17:00:00 15 15 Oeste 25 Oeste 0 -- -- 71
2019-04-18 16:00:00 13.7 15 Oeste 29 Oeste 0 -- -- 76
2019-04-18 15:00:00 14.6 18 Sudoeste 26 Sudoeste 0 -- -- 68
2019-04-18 14:00:00 14.5 12 Oeste 25 Sudoeste 0 -- -- 65
2019-04-18 13:00:00 14.7 12 Oeste 21 Sudoeste 0 -- -- 68
2019-04-18 12:00:00 11.5 3 Sur 13 Este 0 -- -- 84
2019-04-18 11:00:00 9.1 2 Sur 18 Sudeste 1.2 -- -- 92
2019-04-18 10:00:00 9.1 5 Sudeste 24 Oeste 5.8 -- -- 92
2019-04-18 09:00:00 10.8 5 Oeste 9 Sudoeste 0.6 -- -- 93
2019-04-18 08:00:00 10.1 0 Calma 4 Sudoeste 0 -- -- 93
2019-04-18 07:00:00 10.2 0 Calma 9 Oeste 0.6 -- -- 92
2019-04-18 06:00:00 10.4 5 Oeste 19 Oeste 0.2 -- -- 89
2019-04-18 05:00:00 11.1 3 Sudoeste 10 Este 0 -- -- 79
2019-04-18 04:00:00 11.8 5 Este 8 Este 0 -- -- 70
2019-04-18 03:00:00 12.1 5 Sudoeste 11 Norte 0 -- -- 67
2019-04-18 02:00:00 12.3 6 Norte 23 Oeste 0 -- -- 67
2019-04-18 01:00:00 13.1 3 Sudoeste 16 Sudeste 0 -- -- 67
2019-04-18 00:00:00 13.1 4 Sudeste 15 Sudeste 0 -- -- 66
2019-04-17 23:00:00 12.7 6 Sudeste 21 Sudoeste 0 -- -- 71
2019-04-17 22:00:00 12.4 13 Sudoeste 24 Oeste 0 -- -- 73
2019-04-17 21:00:00 12.2 20 Sudoeste 32 Oeste 0 -- -- 72
2019-04-17 20:00:00 14.7 15 Noroeste 31 Sudoeste 0 -- -- 69
2019-04-17 19:00:00 16 20 Sudoeste 36 Oeste 0 -- -- 62
2019-04-17 18:00:00 17.1 11 Sudoeste 20 Sudoeste 0 -- -- 59
2019-04-17 17:00:00 17.3 7 Sur 22 Sur 0 -- -- 59
2019-04-17 16:00:00 18.9 5 Sur 16 Noroeste 0 -- -- 55
2019-04-17 15:00:00 19.3 10 Sudoeste 25 Sudoeste 0 -- -- 54
2019-04-17 14:00:00 19.1 11 Sur 24 Sudoeste 0 -- -- 52
2019-04-17 13:00:00 19.1 8 Sur 32 Sur 0 -- -- 52
2019-04-17 12:00:00 18.9 13 Sur 33 Sudoeste 0 -- -- 50
2019-04-17 11:00:00 18.7 10 Sur 31 Sudoeste 0 -- -- 50
2019-04-17 10:00:00 17.1 10 Sur 45 Sudeste 0 -- -- 49
2019-04-17 09:00:00 15.4 10 Sudeste 37 Sudeste 0 -- -- 51
2019-04-17 08:00:00 15.2 8 Sudeste 30 Sudeste 0 -- -- 44
2019-04-17 07:00:00 14.9 8 Sudeste 30 Sudeste 0 -- -- 43
2019-04-17 06:00:00 14.7 8 Sur 24 Sur 0 -- -- 44
2019-04-17 05:00:00 -- -- -- -- -- -- -- -- --
2019-04-17 04:00:00 -- -- -- -- -- -- -- -- --
2019-04-17 03:00:00 -- -- -- -- -- -- -- -- --
2019-04-17 02:00:00 -- -- -- -- -- -- -- -- --
2019-04-17 01:00:00 -- -- -- -- -- -- -- -- --
2019-04-17 00:00:00 -- -- -- -- -- -- -- -- --
2019-04-16 23:00:00 -- -- -- -- -- -- -- -- --
2019-04-16 22:00:00 -- -- -- -- -- -- -- -- --
2019-04-16 21:00:00 -- -- -- -- -- -- -- -- --
2019-04-16 20:00:00 23.3 5 Sur 17 Este 0 -- -- 37
2019-04-16 19:00:00 24.9 7 Sur 24 Sudoeste 0 -- -- 29
2019-04-16 18:00:00 25.5 12 Sudoeste 24 Oeste 0 -- -- 25
2019-04-16 17:00:00 25.2 9 Noroeste 19 Oeste 0 -- -- 38
2019-04-16 16:00:00 24.3 9 Oeste 22 Oeste 0 -- -- 41
2019-04-16 15:00:00 23.8 13 Oeste 20 Sudoeste 0 -- -- 37
2019-04-16 14:00:00 22.7 5 Oeste 22 Este 0 -- -- 35
2019-04-16 13:00:00 20.9 10 Nordeste 18 Nordeste 0 -- -- 38
2019-04-16 12:00:00 19.2 8 Nordeste 17 Norte 0 -- -- 54
2019-04-16 11:00:00 17.4 10 Nordeste 15 Nordeste 0 -- -- 62
2019-04-16 10:00:00 14.6 2 Sudeste 9 Este 0 -- -- 72
2019-04-16 09:00:00 11 3 Este 10 Este 0 -- -- 83
2019-04-16 08:00:00 9.4 5 Este 14 Este 0 -- -- 87
2019-04-16 07:00:00 8.8 7 Este 12 Sudeste 0 -- -- 88
2019-04-16 06:00:00 9.4 7 Este 10 Este 0 -- -- 88
2019-04-16 05:00:00 -- -- -- -- -- -- -- -- --
2019-04-16 04:00:00 -- -- -- -- -- -- -- -- --
2019-04-16 03:00:00 -- -- -- -- -- -- -- -- --
2019-04-16 02:00:00 -- -- -- -- -- -- -- -- --
2019-04-16 01:00:00 -- -- -- -- -- -- -- -- --
2019-04-16 00:00:00 -- -- -- -- -- -- -- -- --
2019-04-15 23:00:00 -- -- -- -- -- -- -- -- --
2019-04-15 22:00:00 -- -- -- -- -- -- -- -- --
2019-04-15 21:00:00 -- -- -- -- -- -- -- -- --
2019-04-15 20:00:00 -- -- -- -- -- -- -- -- --
2019-04-15 19:00:00 -- -- -- -- -- -- -- -- --
2019-04-15 18:00:00 -- -- -- -- -- -- -- -- --
2019-04-15 17:00:00 -- -- -- -- -- -- -- -- --
2019-04-15 16:00:00 -- -- -- -- -- -- -- -- --
2019-04-15 15:00:00 -- -- -- -- -- -- -- -- --
2019-04-15 14:00:00 -- -- -- -- -- -- -- -- --
2019-04-15 13:00:00 -- -- -- -- -- -- -- -- --
2019-04-15 12:00:00 20.9 10 Oeste 22 Oeste 0 -- -- 39
2019-04-15 11:00:00 20.1 12 Noroeste 18 Noroeste 0 -- -- 43
2019-04-15 10:00:00 19.7 2 Sudoeste 9 Este 0 -- -- 39
2019-04-15 09:00:00 17.1 5 Sudeste 12 Este 0 -- -- 45
2019-04-15 08:00:00 16.2 2 Sudeste 13 Este 0 -- -- 50
2019-04-15 07:00:00 16.8 6 Sudeste 16 Sudeste 0 -- -- 49
2019-04-15 06:00:00 17.1 7 Sudeste 20 Sudeste 0 -- -- 53
2019-04-15 05:00:00 16.2 4 Sudeste 15 Este 0 -- -- 60
2019-04-15 04:00:00 16.4 10 Sudeste 17 Este 0 -- -- 61
2019-04-15 03:00:00 16.4 5 Sudeste 17 Este 0 -- -- 64
2019-04-15 02:00:00 17.4 5 Sudeste 11 Sudeste 0 -- -- 62
2019-04-15 01:00:00 17.8 6 Sudeste 13 Sudeste 0 -- -- 60
2019-04-15 00:00:00 18 6 Este 10 Este 0 -- -- 61
2019-04-14 23:00:00 18.8 6 Este 10 Este 0 -- -- 58
2019-04-14 22:00:00 19.8 3 Nordeste 12 Noroeste 0 -- -- 53
2019-04-14 21:00:00 20.5 8 Noroeste 14 Oeste 0 -- -- 51
2019-04-14 20:00:00 22.1 6 Noroeste 15 Oeste 0 -- -- 47
2019-04-14 19:00:00 24.5 9 Noroeste 19 Oeste 0 -- -- 43
2019-04-14 18:00:00 25.2 9 Noroeste 20 Oeste 0 -- -- 41
2019-04-14 17:00:00 25.1 10 Noroeste 21 Oeste 0 -- -- 43
2019-04-14 16:00:00 24.8 8 Oeste 21 Sudoeste 0 -- -- 40
2019-04-14 15:00:00 24.4 6 Noroeste 22 Sudoeste 0 -- -- 40
2019-04-14 14:00:00 23.4 7 Norte 17 Oeste 0 -- -- 41
2019-04-14 13:00:00 22.4 10 Sudoeste 17 Sudoeste 0 -- -- 41
2019-04-14 12:00:00 21.9 5 Norte 8 Este 0 -- -- 40
2019-04-14 11:00:00 19.9 3 Sudeste 10 Este 0 -- -- 46
2019-04-14 10:00:00 15.9 2 Sudeste 9 Este 0 -- -- 58
2019-04-14 09:00:00 11.8 3 Este 12 Sudeste 0 -- -- 65
2019-04-14 08:00:00 10.5 8 Este 15 Este 0 -- -- 68
2019-04-14 07:00:00 10.4 10 Este 14 Este 0 -- -- 68
2019-04-14 06:00:00 10.2 8 Este 13 Este 0 -- -- 71
2019-04-14 05:00:00 10.6 6 Este 9 Este 0 -- -- 70
2019-04-14 04:00:00 10.5 5 Este 9 Este 0 -- -- 70
2019-04-14 03:00:00 10.9 6 Este 9 Sudeste 0 -- -- 69
2019-04-14 02:00:00 11.4 4 Este 9 Este 0 -- -- 67
2019-04-14 01:00:00 12.2 3 Sudeste 5 Sudoeste 0 -- -- 64
2019-04-14 00:00:00 13.3 0 Calma 6 Sudoeste 0 -- -- 59
2019-04-13 23:00:00 13.9 4 Oeste 15 Sudoeste 0 -- -- 56
2019-04-13 22:00:00 15 7 Oeste 13 Noroeste 0 -- -- 52
2019-04-13 21:00:00 17.1 6 Oeste 16 Oeste 0 -- -- 47
2019-04-13 20:00:00 19.8 10 Oeste 26 Oeste 0 -- -- 35
2019-04-13 19:00:00 20.7 14 Oeste 27 Oeste 0 -- -- 35
2019-04-13 18:00:00 21.2 13 Noroeste 21 Noroeste 0 -- -- 35
2019-04-13 17:00:00 21.6 14 Oeste 24 Oeste 0 -- -- 33
2019-04-13 16:00:00 21.7 8 Norte 22 Oeste 0 -- -- 39
2019-04-13 15:00:00 21.1 10 Oeste 33 Sudoeste 0 -- -- 39
2019-04-13 14:00:00 20.1 9 Sudoeste 28 Oeste 0 -- -- 36
2019-04-13 13:00:00 19.5 10 Oeste 19 Oeste 0 -- -- 36
2019-04-13 12:00:00 19.3 6 Norte 12 Nordeste 0 -- -- 39
2019-04-13 11:00:00 17.3 0 Calma 5 Sur 0 -- -- 45
2019-04-13 10:00:00 14 0 Calma 11 Este 0 -- -- 58
2019-04-13 09:00:00 9.7 6 Este 14 Sudeste 0 -- -- 67
2019-04-13 08:00:00 8.5 8 Este 13 Este 0 -- -- 70
2019-04-13 07:00:00 8.7 7 Este 13 Sudeste 0 -- -- 69
2019-04-13 06:00:00 9 5 Este 13 Este 0 -- -- 69
2019-04-13 05:00:00 9.4 8 Este 14 Este 0 -- -- 67
2019-04-13 04:00:00 9.6 7 Este 11 Este 0 -- -- 66
2019-04-13 03:00:00 9.4 9 Este 12 Este 0 -- -- 68
2019-04-13 02:00:00 10.6 4 Sudeste 8 Este 0 -- -- 63
2019-04-13 01:00:00 11.2 0 Calma 5 Sudoeste 0 -- -- 60
2019-04-13 00:00:00 12 0 Calma 13 Oeste 0 -- -- 57
2019-04-12 23:00:00 13.2 9 Oeste 23 Oeste 0 -- -- 52
2019-04-12 22:00:00 14.2 5 Oeste 10 Oeste 0 -- -- 43
2019-04-12 21:00:00 15.9 5 Oeste 18 Oeste 0 -- -- 42
2019-04-12 20:00:00 18.2 9 Noroeste 22 Oeste 0 -- -- 39
2019-04-12 19:00:00 19.1 12 Oeste 23 Oeste 0 -- -- 37
2019-04-12 18:00:00 20 11 Noroeste 24 Oeste 0 -- -- 35
2019-04-12 17:00:00 20.2 11 Oeste 28 Norte 0 -- -- 35
2019-04-12 16:00:00 19.9 8 Norte 34 Oeste 0 -- -- 37
2019-04-12 15:00:00 19.7 9 Noroeste 26 Oeste 0 -- -- 37
2019-04-12 14:00:00 19 11 Oeste 22 Oeste 0 -- -- 38
2019-04-12 13:00:00 18 9 Sudoeste 17 Sudoeste 0 -- -- 39
2019-04-12 12:00:00 17.5 5 Norte 14 Nordeste 0 -- -- 43
2019-04-12 11:00:00 15.8 3 Nordeste 6 Nordeste 0 -- -- 56
2019-04-12 10:00:00 12.3 0 Calma 10 Este 0 -- -- 72
2019-04-12 09:00:00 8.6 6 Este 13 Este 0 -- -- 80
2019-04-12 08:00:00 7.1 6 Este 10 Sudeste 0 -- -- 84
2019-04-12 07:00:00 7.6 3 Este 11 Sudeste 0 -- -- 83
2019-04-12 06:00:00 7.5 8 Este 11 Este 0 -- -- 84
2019-04-12 05:00:00 8.1 4 Este 13 Este 0 -- -- 82
2019-04-12 04:00:00 9 5 Sudeste 10 Este 0 -- -- 80
2019-04-12 03:00:00 9.4 7 Este 10 Este 0 -- -- 79
2019-04-12 02:00:00 10.2 0 Calma 6 Sudeste 0 -- -- 78
2019-04-12 01:00:00 10.4 0 Calma 7 Oeste 0 -- -- 79
2019-04-12 00:00:00 11.1 3 Sudoeste 6 Sudoeste 0 -- -- 77
2019-04-11 23:00:00 11.9 3 Oeste 20 Norte 0 -- -- 68
2019-04-11 22:00:00 13.3 5 Oeste 10 Noroeste 0 -- -- 58
2019-04-11 21:00:00 14.4 6 Noroeste 17 Noroeste 0 -- -- 54
2019-04-11 20:00:00 16.4 6 Noroeste 14 Noroeste 0 -- -- 45
2019-04-11 19:00:00 16.4 9 Noroeste 19 Norte 0 -- -- 46
2019-04-11 18:00:00 16.7 8 Noroeste 26 Oeste 0 -- -- 48
2019-04-11 17:00:00 17.7 14 Oeste 28 Oeste 0 -- -- 49
2019-04-11 16:00:00 17.6 14 Oeste 26 Oeste 0 -- -- 50
2019-04-11 15:00:00 16.7 14 Noroeste 30 Noroeste 0 -- -- 51
2019-04-11 14:00:00 16 13 Noroeste 30 Oeste 0 -- -- 59
2019-04-11 13:00:00 15.5 12 Noroeste 23 Noroeste 0 -- -- 59
2019-04-11 12:00:00 14.3 6 Noroeste 15 Oeste 0 -- -- 62
2019-04-11 11:00:00 13.1 2 Noroeste 6 Nordeste 0 -- -- 65
2019-04-11 10:00:00 10.3 0 Calma 6 Este 0 -- -- 76
2019-04-11 09:00:00 6.8 4 Este 10 Este 0 -- -- 85
2019-04-11 08:00:00 6.4 6 Este 11 Este 0 -- -- 85
2019-04-11 07:00:00 6.5 4 Este 9 Sudeste 0 -- -- 83
2019-04-11 06:00:00 7.6 4 Este 9 Este 0 -- -- 79
2019-04-11 05:00:00 7.9 5 Este 9 Sudeste 0 -- -- 78
2019-04-11 04:00:00 8.1 3 Sudeste 6 Sudeste 0 -- -- 78
2019-04-11 03:00:00 8.5 2 Nordeste 10 Oeste 0 -- -- 78
2019-04-11 02:00:00 9.9 6 Oeste 10 Oeste 0 -- -- 67
2019-04-11 01:00:00 10 4 Oeste 10 Noroeste 0 -- -- 67
2019-04-11 00:00:00 10.4 2 Oeste 10 Oeste 0 -- -- 75
2019-04-10 23:00:00 11.4 8 Oeste 14 Oeste 0 -- -- 71
2019-04-10 22:00:00 11.9 5 Oeste 23 Noroeste 0 -- -- 75
2019-04-10 21:00:00 12.5 13 Oeste 35 Sudoeste 0 -- -- 74
2019-04-10 20:00:00 15.4 17 Oeste 37 Oeste 0 -- -- 58
2019-04-10 19:00:00 16 18 Oeste 37 Noroeste 0 -- -- 48
2019-04-10 18:00:00 15.7 12 Oeste 33 Sudoeste 0 -- -- 52
2019-04-10 17:00:00 15 21 Oeste 39 Oeste 0 -- -- 59
2019-04-10 16:00:00 14.5 20 Oeste 39 Sudoeste 0 -- -- 56
2019-04-10 15:00:00 14.4 16 Oeste 40 Oeste 0 -- -- 57
2019-04-10 14:00:00 13.2 14 Oeste 27 Oeste 0 -- -- 61
2019-04-10 13:00:00 12.1 14 Oeste 26 Oeste 0 -- -- 68
2019-04-10 12:00:00 11.2 12 Oeste 24 Oeste 0 -- -- 70
2019-04-10 11:00:00 10 9 Noroeste 19 Noroeste 0 -- -- 79
2019-04-10 10:00:00 7.9 6 Oeste 13 Oeste 0 -- -- 90
2019-04-10 09:00:00 6.6 5 Oeste 10 Oeste 0 -- -- 91
2019-04-10 08:00:00 6 3 Oeste 7 Oeste 0 -- -- 94
2019-04-10 07:00:00 6.5 5 Oeste 15 Oeste 0 -- -- 93
2019-04-10 06:00:00 7.1 8 Oeste 14 Oeste 0 -- -- 92
2019-04-10 05:00:00 7.9 9 Oeste 15 Oeste 0 -- -- 91
2019-04-10 04:00:00 8.9 7 Oeste 15 Oeste 0 -- -- 89
2019-04-10 03:00:00 9.2 8 Noroeste 18 Oeste 0 -- -- 86
2019-04-10 02:00:00 9.5 6 Oeste 23 Oeste 0 -- -- 84
2019-04-10 01:00:00 10 10 Oeste 23 Oeste 0 -- -- 89
2019-04-10 00:00:00 10.3 5 Oeste 21 Oeste 0 -- -- 89
2019-04-09 23:00:00 10 12 Sudoeste 25 Oeste 0 -- -- 88
2019-04-09 22:00:00 10.3 17 Sudoeste 27 Sudoeste 0 -- -- 86
2019-04-09 21:00:00 11.2 19 Sudoeste 35 Sudoeste 0 -- -- 78
2019-04-09 20:00:00 13.1 24 Sudoeste 35 Sudoeste 0 -- -- 70
2019-04-09 19:00:00 13.2 19 Oeste 33 Oeste 0 -- -- 65
2019-04-09 18:00:00 14.1 20 Sudoeste 34 Oeste 0 -- -- 60
2019-04-09 17:00:00 14.5 21 Oeste 39 Oeste 0 -- -- 62
2019-04-09 16:00:00 15.4 22 Oeste 46 Oeste 0 -- -- 56
2019-04-09 15:00:00 13.9 21 Oeste 36 Sudoeste 0 -- -- 64
2019-04-09 14:00:00 12.7 18 Oeste 32 Sudoeste 0 -- -- 74
2019-04-09 13:00:00 12.3 17 Oeste 33 Oeste 0 -- -- 73
2019-04-09 12:00:00 12.5 19 Oeste 38 Oeste 0 -- -- 71
2019-04-09 11:00:00 10.8 17 Oeste 27 Oeste 0 -- -- 86
2019-04-09 10:00:00 9.5 9 Oeste 18 Oeste 0 -- -- 91
2019-04-09 09:00:00 8.2 7 Oeste 10 Sudoeste 0 -- -- 92
2019-04-09 08:00:00 7.6 4 Oeste 8 Oeste 0 -- -- 91
2019-04-09 07:00:00 7.5 4 Oeste 10 Noroeste 0 -- -- 91
2019-04-09 06:00:00 7.6 7 Oeste 14 Oeste 0 -- -- 91
2019-04-09 05:00:00 7.6 8 Oeste 16 Noroeste 0 -- -- 89
2019-04-09 04:00:00 8.2 10 Oeste 22 Oeste 0 -- -- 88
2019-04-09 03:00:00 9 12 Oeste 24 Oeste 0 -- -- 88
2019-04-09 02:00:00 9.5 12 Oeste 27 Oeste 0 -- -- 87
2019-04-09 01:00:00 10.3 15 Oeste 27 Sudoeste 0 -- -- 86
2019-04-09 00:00:00 10.3 17 Sudoeste 31 Sudoeste 0 -- -- 90
2019-04-08 23:00:00 10.5 17 Sudoeste 32 Oeste 0 -- -- 89
2019-04-08 22:00:00 10.9 19 Sudoeste 31 Sudoeste 0 -- -- 86
2019-04-08 21:00:00 11.1 17 Sudoeste 31 Sudoeste 0 -- -- 90
2019-04-08 20:00:00 11.7 19 Sudoeste 36 Sudoeste 0 -- -- 89
2019-04-08 19:00:00 11.5 18 Sudoeste 30 Sudoeste 0 -- -- 92
2019-04-08 18:00:00 11.2 19 Sudoeste 39 Sudoeste 0.6 -- -- 96
2019-04-08 17:00:00 11.4 29 Sudoeste 45 Sudoeste 0.2 -- -- 95
2019-04-08 16:00:00 12.1 20 Sudoeste 41 Sudoeste 0.6 -- -- 93
2019-04-08 15:00:00 13.2 26 Sudoeste 43 Oeste 0 -- -- 81
2019-04-08 14:00:00 12.8 23 Sudoeste 37 Sudoeste 0 -- -- 85
2019-04-08 13:00:00 13.1 20 Sudoeste 36 Oeste 0 -- -- 80
2019-04-08 12:00:00 12.7 19 Sudoeste 32 Sudoeste 0 -- -- 86
2019-04-08 11:00:00 11.1 15 Sudoeste 28 Sudoeste 0.2 -- -- 95
2019-04-08 10:00:00 11.8 18 Sudoeste 32 Sudoeste 0 -- -- 89
2019-04-08 09:00:00 10.7 2 Sur 29 Sudoeste 0 -- -- 93
2019-04-08 08:00:00 10.9 19 Oeste 30 Oeste 0 -- -- 94
2019-04-08 07:00:00 10.8 14 Sudoeste 32 Sudoeste 0 -- -- 94
2019-04-08 06:00:00 11.1 17 Sudoeste 30 Sudoeste 0 -- -- 96
2019-04-08 05:00:00 11.2 19 Sudoeste 33 Sudoeste 0 -- -- 95
2019-04-08 04:00:00 11.2 18 Sudoeste 33 Sudoeste 0 -- -- 94
2019-04-08 03:00:00 11.4 22 Sudoeste 33 Sudoeste 0 -- -- 95
2019-04-08 02:00:00 11.5 20 Sudoeste 40 Sudoeste 0.2 -- -- 95
2019-04-08 01:00:00 11.3 15 Sudoeste 30 Sudoeste 0 -- -- 96
2019-04-08 00:00:00 11.3 22 Sudoeste 32 Sudoeste 0 -- -- 97
2019-04-07 23:00:00 11.4 23 Sudoeste 35 Sudoeste 0.2 -- -- 98
2019-04-07 22:00:00 11.3 18 Sudoeste 41 Sudoeste 3.2 -- -- 97
2019-04-07 21:00:00 11.7 24 Sudoeste 44 Sudoeste 1 -- -- 97
2019-04-07 20:00:00 11.7 23 Sudoeste 47 Sudoeste 0.8 -- -- 97
2019-04-07 19:00:00 11.4 25 Sudoeste 38 Sudoeste 1 -- -- 97
2019-04-07 18:00:00 10.7 12 Sudoeste 26 Sudoeste 0.4 -- -- 96
2019-04-07 17:00:00 10.4 18 Sudoeste 35 Sudoeste 0 -- -- 93
2019-04-07 16:00:00 10.9 22 Sudoeste 39 Sudoeste 0 -- -- 88
2019-04-07 15:00:00 10.2 22 Sudoeste 36 Sudoeste 0.4 -- -- 93
2019-04-07 14:00:00 11 15 Oeste 34 Oeste 0 -- -- 85
2019-04-07 13:00:00 11.4 16 Oeste 29 Oeste 0 -- -- 81
2019-04-07 12:00:00 10.2 10 Noroeste 25 Oeste 0 -- -- 88
2019-04-07 11:00:00 9.3 12 Oeste 23 Oeste 0 -- -- 85
2019-04-07 10:00:00 8.5 11 Oeste 21 Oeste 0 -- -- 92
2019-04-07 09:00:00 7.7 9 Sudoeste 19 Oeste 0 -- -- 94
2019-04-07 08:00:00 7.6 16 Noroeste 32 Noroeste 1 -- -- 93
2019-04-07 07:00:00 7.7 11 Oeste 35 Oeste 0.8 -- -- 90
2019-04-07 06:00:00 8 10 Oeste 25 Oeste 0 -- -- 89
2019-04-07 05:00:00 8.1 15 Oeste 30 Oeste 0 -- -- 88
2019-04-07 04:00:00 8.4 15 Oeste 36 Oeste 0 -- -- 84
2019-04-07 03:00:00 8.5 15 Oeste 34 Oeste 0 -- -- 84
2019-04-07 02:00:00 8.6 16 Oeste 34 Oeste 0 -- -- 82
2019-04-07 01:00:00 8.9 22 Oeste 42 Sudoeste 0 -- -- 81
2019-04-07 00:00:00 9.2 24 Oeste 48 Sudoeste 0 -- -- 81
2019-04-06 23:00:00 9.3 23 Oeste 46 Oeste 0 -- -- 80
2019-04-06 22:00:00 8.9 27 Sudoeste 47 Oeste 0.2 -- -- 86
2019-04-06 21:00:00 9.6 25 Oeste 51 Oeste 0 -- -- 79
2019-04-06 20:00:00 9.7 35 Sudoeste 65 Sudoeste 0 -- -- 78
2019-04-06 19:00:00 9.8 33 Sudoeste 55 Oeste 0.6 -- -- 76
2019-04-06 18:00:00 10.6 22 Oeste 42 Oeste 0.8 -- -- 81
2019-04-06 17:00:00 8.9 20 Oeste 52 Oeste 0.4 -- -- 85
2019-04-06 16:00:00 10.8 28 Oeste 55 Sudoeste 0 -- -- 68
2019-04-06 15:00:00 10.4 28 Sudoeste 48 Oeste 0.2 -- -- 73
2019-04-06 14:00:00 8 9 Noroeste 43 Oeste 1 -- -- 89
2019-04-06 13:00:00 9.4 17 Oeste 32 Sudoeste 0 -- -- 76
2019-04-06 12:00:00 9 17 Sudoeste 31 Sudoeste 0 -- -- 84
2019-04-06 11:00:00 7.5 15 Sudoeste 26 Oeste 0 -- -- 91
2019-04-06 10:00:00 7.2 9 Sudoeste 16 Oeste 0 -- -- 90
2019-04-06 09:00:00 5.8 8 Sudoeste 41 Oeste 0.6 -- -- 93
2019-04-06 08:00:00 7.1 5 Oeste 24 Oeste 0 -- -- 87
2019-04-06 07:00:00 7.2 12 Oeste 26 Oeste 0 -- -- 86
2019-04-06 06:00:00 7 15 Oeste 26 Oeste 0 -- -- 86
2019-04-06 05:00:00 7.1 13 Oeste 28 Sudoeste 0 -- -- 82
2019-04-06 04:00:00 7.2 13 Oeste 28 Sudoeste 0 -- -- 82
2019-04-06 03:00:00 7.1 18 Oeste 33 Oeste 0 -- -- 81
2019-04-06 02:00:00 6.7 15 Oeste 32 Oeste 0 -- -- 81
2019-04-06 01:00:00 6.9 14 Oeste 29 Oeste 0 -- -- 79
2019-04-06 00:00:00 7 17 Oeste 34 Oeste 0 -- -- 78
2019-04-05 23:00:00 7.6 17 Oeste 41 Oeste 0 -- -- 76
2019-04-05 22:00:00 8.1 27 Oeste 44 Oeste 0 -- -- 79
2019-04-05 21:00:00 8.2 24 Oeste 41 Oeste 0 -- -- 76
2019-04-05 20:00:00 8.6 23 Sudoeste 51 Sudoeste 0 -- -- 74
2019-04-05 19:00:00 9.7 23 Sudoeste 47 Oeste 0 -- -- 65
2019-04-05 18:00:00 10.6 31 Oeste 55 Sudoeste 0 -- -- 57
2019-04-05 17:00:00 9.2 21 Oeste 51 Sudoeste 2.8 -- -- 73
2019-04-05 16:00:00 10.1 24 Oeste 49 Oeste 0.2 -- -- 65
2019-04-05 15:00:00 9.4 23 Oeste 38 Oeste 0 -- -- 67
2019-04-05 14:00:00 9.4 21 Oeste 40 Oeste 0 -- -- 80
2019-04-05 13:00:00 8.2 19 Oeste 42 Sudoeste 0.4 -- -- 91
2019-04-05 12:00:00 8 16 Oeste 37 Sudoeste 2 -- -- 90
2019-04-05 11:00:00 8.1 13 Sudoeste 29 Sudoeste 1 -- -- 92
2019-04-05 10:00:00 8 17 Sudoeste 36 Sudoeste 0.4 -- -- 87
2019-04-05 09:00:00 7.8 23 Sudoeste 40 Sudoeste 2.6 -- -- 93
2019-04-05 08:00:00 7.5 3 Sur 17 Sudoeste 3.2 -- -- 94
2019-04-05 07:00:00 7.6 0 Calma 14 Sudoeste 1.6 -- -- 91
2019-04-05 06:00:00 8.2 7 Sudoeste 22 Sudoeste 0 -- -- 85
2019-04-05 05:00:00 8.7 18 Sudoeste 32 Sudoeste 0 -- -- 76
2019-04-05 04:00:00 8.4 20 Sudoeste 35 Sudoeste 0 -- -- 80
2019-04-05 03:00:00 8.7 24 Sudoeste 39 Sudoeste 0 -- -- 80
2019-04-05 02:00:00 9.2 19 Sudoeste 40 Sudoeste 0 -- -- 75
2019-04-05 01:00:00 8.7 20 Sudoeste 32 Sudoeste 0 -- -- 74
2019-04-05 00:00:00 8.2 13 Sudoeste 35 Sudoeste 0 -- -- 63
2019-04-04 23:00:00 8.3 18 Sudoeste 30 Oeste 0 -- -- 62
2019-04-04 22:00:00 9.2 18 Oeste 35 Oeste 0 -- -- 53
2019-04-04 21:00:00 10.4 22 Sudoeste 40 Sudoeste 0 -- -- 49
2019-04-04 20:00:00 12.9 21 Sudoeste 40 Oeste 0 -- -- 45
2019-04-04 19:00:00 14.6 26 Oeste 39 Sudoeste 0 -- -- 46
2019-04-04 18:00:00 16.3 21 Sudoeste 36 Sudoeste 0 -- -- 40
2019-04-04 17:00:00 16.6 21 Sudoeste 34 Sudoeste 0 -- -- 35
2019-04-04 16:00:00 16.3 23 Sudoeste 35 Oeste 0 -- -- 36
2019-04-04 15:00:00 16.2 18 Sudoeste 34 Sudoeste 0 -- -- 38
2019-04-04 14:00:00 15.8 16 Oeste 29 Oeste 0 -- -- 39
2019-04-04 13:00:00 14.9 14 Oeste 25 Oeste 0 -- -- 38
2019-04-04 12:00:00 13.1 5 Noroeste 15 Oeste 0 -- -- 38
2019-04-04 11:00:00 10.6 4 Sudoeste 8 Oeste 0 -- -- 44
2019-04-04 10:00:00 8.8 3 Sudeste 9 Este 0 -- -- 66
2019-04-04 09:00:00 5.3 6 Este 9 Este 0 -- -- 82
2019-04-04 08:00:00 5.7 2 Este 4 Este 0 -- -- 75
2019-04-04 07:00:00 6.6 0 Calma 8 Nordeste 0 -- -- 79
2019-04-04 06:00:00 6.8 2 Sudeste 5 Este 0 -- -- 82
2019-04-04 05:00:00 7.3 0 Calma 5 Oeste 0 -- -- 80
2019-04-04 04:00:00 8.8 4 Oeste 9 Oeste 0 -- -- 74
2019-04-04 03:00:00 9.4 2 Oeste 7 Noroeste 0 -- -- 72
2019-04-04 02:00:00 9.9 5 Noroeste 9 Oeste 0 -- -- 70
2019-04-04 01:00:00 9.9 3 Oeste 6 Noroeste 0 -- -- 72
2019-04-04 00:00:00 10.2 0 Calma 6 Sudoeste 0 -- -- 72
2019-04-03 23:00:00 11.4 3 Sur 18 Sudoeste 0 -- -- 66
2019-04-03 22:00:00 12.4 6 Sudoeste 15 Oeste 0 -- -- 56
2019-04-03 21:00:00 14 10 Sudoeste 28 Sudoeste 0 -- -- 53
2019-04-03 20:00:00 16.6 16 Oeste 42 Oeste 0 -- -- 46
2019-04-03 19:00:00 18.2 24 Oeste 37 Oeste 0 -- -- 43
2019-04-03 18:00:00 19.4 21 Oeste 34 Oeste 0 -- -- 43
2019-04-03 17:00:00 19.8 21 Oeste 34 Oeste 0 -- -- 44
2019-04-03 16:00:00 19.6 22 Oeste 36 Oeste 0 -- -- 42
2019-04-03 15:00:00 19.5 19 Oeste 32 Oeste 0 -- -- 45
2019-04-03 14:00:00 19.8 13 Oeste 27 Sudoeste 0 -- -- 47
2019-04-03 13:00:00 18.7 6 Noroeste 18 Oeste 0 -- -- 51
2019-04-03 12:00:00 17.3 8 Oeste 17 Oeste 0 -- -- 57
2019-04-03 11:00:00 15.3 2 Sudoeste 7 Sudeste 0 -- -- 65
2019-04-03 10:00:00 12.4 0 Calma 10 Este 0 -- -- 77
2019-04-03 09:00:00 9.2 5 Este 10 Este 0 -- -- 86
2019-04-03 08:00:00 8.6 5 Este 12 Sudeste 0 -- -- 89
2019-04-03 07:00:00 8.7 8 Este 12 Este 0 -- -- 87
2019-04-03 06:00:00 9.1 4 Este 9 Sudeste 0 -- -- 86
2019-04-03 05:00:00 9.1 7 Este 10 Este 0 -- -- 87
2019-04-03 04:00:00 10.1 4 Este 9 Este 0 -- -- 84
2019-04-03 03:00:00 10.5 3 Este 8 Este 0 -- -- 83
2019-04-03 02:00:00 11.6 2 Sudeste 6 Este 0 -- -- 78
2019-04-03 01:00:00 12 3 Este 8 Este 0 -- -- 78
2019-04-03 00:00:00 12.6 4 Este 5 Este 0 -- -- 75
2019-04-02 23:00:00 13.7 0 Calma 9 Noroeste 0 -- -- 69
2019-04-02 22:00:00 14.8 6 Noroeste 9 Oeste 0 -- -- 65
2019-04-02 21:00:00 15.5 5 Noroeste 11 Oeste 0 -- -- 59
2019-04-02 20:00:00 16.9 7 Oeste 17 Noroeste 0 -- -- 58
2019-04-02 19:00:00 18.3 9 Noroeste 19 Noroeste 0 -- -- 56
2019-04-02 18:00:00 18.8 9 Noroeste 21 Oeste 0 -- -- 55
2019-04-02 17:00:00 19.4 14 Oeste 26 Oeste 0 -- -- 49
2019-04-02 16:00:00 19.7 11 Oeste 22 Oeste 0 -- -- 44
2019-04-02 15:00:00 18.9 4 Sur 22 Sudoeste 0 -- -- 41
2019-04-02 14:00:00 18.3 5 Nordeste 12 Noroeste 0 -- -- 49
2019-04-02 13:00:00 15.8 4 Norte 10 Norte 0 -- -- 56
2019-04-02 12:00:00 15.1 5 Nordeste 9 Nordeste 0 -- -- 64
2019-04-02 11:00:00 13 0 Calma 6 Este 0 -- -- 70
2019-04-02 10:00:00 10 0 Calma 9 Este 0 -- -- 82
2019-04-02 09:00:00 7.5 4 Este 9 Este 0 -- -- 86
2019-04-02 08:00:00 7.2 6 Este 13 Este 0 -- -- 87
2019-04-02 07:00:00 7.4 5 Este 12 Este 0 -- -- 87
2019-04-02 06:00:00 8.4 4 Este 9 Sudeste 0 -- -- 87
2019-04-02 05:00:00 7.8 7 Este 11 Sudeste 0 -- -- 92
2019-04-02 04:00:00 7.7 3 Este 14 Sudeste 0 -- -- 92
2019-04-02 03:00:00 8.7 5 Este 8 Este 0 -- -- 93
2019-04-02 02:00:00 9.5 4 Este 7 Nordeste 0 -- -- 92
2019-04-02 01:00:00 10.1 6 Este 8 Sudeste 0 -- -- 91
2019-04-02 00:00:00 10.6 0 Calma 7 Oeste 0 -- -- 89
2019-04-01 23:00:00 11.1 0 Calma 18 Oeste 0 -- -- 87
2019-04-01 22:00:00 11.9 11 Sudoeste 21 Sudoeste 0 -- -- 84
2019-04-01 21:00:00 12.8 12 Sudoeste 23 Oeste 0 -- -- 79
2019-04-01 20:00:00 13.5 13 Sudoeste 27 Oeste 0 -- -- 76
2019-04-01 19:00:00 15.4 19 Sudoeste 30 Sudoeste 0 -- -- 66
2019-04-01 18:00:00 16 16 Sudoeste 26 Sudoeste 0 -- -- 64
2019-04-01 17:00:00 15.5 13 Oeste 33 Sudoeste 0 -- -- 70
2019-04-01 16:00:00 15.6 20 Sudoeste 28 Oeste 0 -- -- 67
2019-04-01 15:00:00 14.7 8 Oeste 21 Sudoeste 0 -- -- 68
2019-04-01 14:00:00 14 4 Sur 14 Sur 0 -- -- 76
2019-04-01 13:00:00 12.9 5 Sur 19 Sur 0 -- -- 79
2019-04-01 12:00:00 14.2 3 Sur 13 Sur 0 -- -- 73
2019-04-01 11:00:00 12.4 3 Sudeste 9 Sudoeste 0 -- -- 78
2019-04-01 10:00:00 11.3 3 Sudeste 13 Este 0 -- -- 82
2019-04-01 09:00:00 10.2 5 Sudeste 15 Este 0.2 -- -- 86
2019-04-01 08:00:00 10.4 3 Sudeste 11 Sudeste 0 -- -- 88
2019-04-01 07:00:00 10.4 5 Sudeste 16 Sudeste 0 -- -- 86
2019-04-01 06:00:00 10 3 Sudeste 14 Sudeste 0 -- -- 89
2019-04-01 05:00:00 9.5 4 Sudeste 18 Sudeste 0 -- -- 89
2019-04-01 04:00:00 9.8 4 Sudeste 16 Este 0 -- -- 90
2019-04-01 03:00:00 10.2 2 Sudeste 9 Este 0 -- -- 90
2019-04-01 02:00:00 10.6 7 Este 11 Este 0 -- -- 89
2019-04-01 01:00:00 10.4 2 Oeste 12 Sudeste 0 -- -- 92
2019-04-01 00:00:00 10.5 5 Sudeste 11 Sudeste 0 -- -- 94
2019-03-31 23:00:00 10.7 0 Calma 10 Sudeste 1.8 -- -- 93
2019-03-31 22:00:00 11.1 0 Calma 23 Oeste 3.2 -- -- 89
2019-03-31 21:00:00 12.3 9 Nordeste 24 Noroeste 0 -- -- 85
2019-03-31 20:00:00 14 11 Noroeste 21 Noroeste 0 -- -- 79
2019-03-31 19:00:00 14 4 Sur 38 Sudoeste 2.4 -- -- 87
2019-03-31 18:00:00 16.7 22 Sudoeste 35 Sudoeste 0 -- -- 66
2019-03-31 17:00:00 17.1 8 Norte 19 Noroeste 0 -- -- 62
2019-03-31 16:00:00 19 6 Noroeste 17 Oeste 0 -- -- 58
2019-03-31 15:00:00 16.9 8 Noroeste 19 Oeste 0 -- -- 71
2019-03-31 14:00:00 16.5 5 Norte 16 Oeste 0.2 -- -- 68
2019-03-31 13:00:00 15.7 8 Oeste 13 Oeste 0 -- -- 75
2019-03-31 12:00:00 14 6 Oeste 15 Noroeste 0 -- -- 80
2019-03-31 11:00:00 14.6 3 Nordeste 7 Nordeste 0 -- -- 73
2019-03-31 10:00:00 11.4 2 Sudeste 12 Este 0 -- -- 91
2019-03-31 09:00:00 10.7 4 Este 10 Sudeste 0.2 -- -- 93
2019-03-31 08:00:00 10.6 0 Calma 9 Este 0.2 -- -- 93
2019-03-31 07:00:00 10.6 6 Este 12 Sudeste 0.4 -- -- 92
2019-03-31 06:00:00 10.8 2 Sudeste 8 Sudeste 0.8 -- -- 91
2019-03-31 05:00:00 11 3 Este 10 Sudeste 0.6 -- -- 89
2019-03-31 03:00:00 12 4 Sudeste 14 Sudeste 0 -- -- 79
2019-03-31 01:00:00 11.9 6 Sudeste 30 Este 0 -- -- 77
2019-03-31 00:00:00 12.6 9 Sudeste 26 Sudeste 0 -- -- 71
2019-03-30 23:00:00 12.9 7 Sudeste 28 Sudeste 0 -- -- 64
2019-03-30 22:00:00 13.2 8 Sudeste 30 Sudeste 0 -- -- 63
2019-03-30 21:00:00 13 3 Sudeste 16 Sur 0 -- -- 65
2019-03-30 20:00:00 13.2 5 Sur 19 Sur 0 -- -- 65
2019-03-30 19:00:00 13.7 7 Sur 27 Sur 0 -- -- 63
2019-03-30 18:00:00 14.9 8 Sur 25 Sudeste 0 -- -- 60
2019-03-30 17:00:00 16.5 9 Sudeste 36 Sudeste 0 -- -- 58
2019-03-30 16:00:00 18.3 13 Sudeste 32 Sudeste 0 -- -- 50
2019-03-30 15:00:00 19.1 12 Sudeste 30 Sudeste 0 -- -- 45
2019-03-30 14:00:00 19.1 11 Este 33 Este 0 -- -- 44
2019-03-30 13:00:00 18.4 15 Este 32 Este 0 -- -- 46
2019-03-30 12:00:00 18.4 14 Sudeste 32 Sudeste 0 -- -- 46
2019-03-30 11:00:00 17.2 7 Sudeste 22 Sudeste 0 -- -- 47
2019-03-30 10:00:00 15.6 6 Sudeste 24 Sudeste 0 -- -- 50
2019-03-30 09:00:00 13 8 Sudeste 34 Sudeste 0 -- -- 56
2019-03-30 08:00:00 10.6 11 Sudeste 40 Sudeste 0 -- -- 69
2019-03-30 07:00:00 10.7 9 Sudeste 31 Sudeste 0 -- -- 71
2019-03-30 06:00:00 10.5 6 Sur 21 Sudeste 0 -- -- 70
2019-03-30 05:00:00 10.3 5 Sudeste 19 Este 0 -- -- 69
2019-03-30 04:00:00 10.3 5 Sudeste 21 Sudoeste 0 -- -- 69
2019-03-30 03:00:00 10.2 4 Sudeste 17 Este 0 -- -- 67
2019-03-30 02:00:00 10.7 8 Sur 32 Sur 0 -- -- 69
2019-03-30 01:00:00 10.9 10 Sur 29 Sudeste 0 -- -- 67
2019-03-30 00:00:00 10.4 8 Sudeste 27 Este 0 -- -- 67
2019-03-29 23:00:00 10.5 5 Sudeste 23 Sudeste 0 -- -- 65
2019-03-29 22:00:00 10.8 5 Sudeste 22 Sudeste 0 -- -- 63
2019-03-29 21:00:00 11.3 4 Sur 21 Sudeste 0 -- -- 61
2019-03-29 20:00:00 12.8 11 Sudeste 21 Este 0 -- -- 56
2019-03-29 19:00:00 14.3 3 Sur 24 Sudoeste 0 -- -- 55
2019-03-29 18:00:00 15.6 6 Sur 23 Sur 0 -- -- 52
2019-03-29 17:00:00 18 8 Sur 24 Sudoeste 0 -- -- 46
2019-03-29 16:00:00 18.4 9 Sur 24 Este 0 -- -- 45
2019-03-29 15:00:00 17.8 11 Sudeste 26 Sudoeste 0 -- -- 46
2019-03-29 14:00:00 17.4 8 Sur 29 Sudoeste 0 -- -- 47
2019-03-29 13:00:00 17.3 9 Sur 33 Sur 0 -- -- 46
2019-03-29 12:00:00 16.4 9 Sur 32 Sudoeste 0 -- -- 50
2019-03-29 11:00:00 15 12 Sur 32 Sudoeste 0 -- -- 52
2019-03-29 10:00:00 13.7 9 Sur 23 Sudoeste 0 -- -- 56
2019-03-29 09:00:00 10.4 5 Sur 15 Sudeste 0 -- -- 59
2019-03-29 08:00:00 10 4 Sur 17 Sudeste 0 -- -- 53
2019-03-29 07:00:00 8.7 3 Sudeste 16 Sudeste 0 -- -- 51
2019-03-29 06:00:00 8.6 3 Sur 18 Este 0 -- -- 52
2019-03-29 05:00:00 9.1 4 Sudeste 23 Sudeste 0 -- -- 53
2019-03-29 04:00:00 9 4 Sur 21 Sudeste 0 -- -- 44
2019-03-29 03:00:00 9.7 6 Sur 39 Sudeste 0 -- -- 34
2019-03-29 02:00:00 10.4 15 Sudeste 45 Sudeste 0 -- -- 37
2019-03-29 01:00:00 9.8 5 Sur 49 Sudeste 0 -- -- 42
2019-03-29 00:00:00 10.6 21 Sudeste 42 Sur 0 -- -- 49
2019-03-28 23:00:00 10 9 Sudeste 32 Sudeste 0 -- -- 62
2019-03-28 22:00:00 10.4 12 Sudeste 45 Este 0 -- -- 57
2019-03-28 21:00:00 10.9 21 Sudeste 56 Este 0 -- -- 47
2019-03-28 20:00:00 11.4 18 Sudeste 42 Este 0 -- -- 47
2019-03-28 19:00:00 13.5 19 Sudeste 45 Este 0 -- -- 42
2019-03-28 18:00:00 14.9 18 Sudeste 55 Este 0 -- -- 33
2019-03-28 17:00:00 15.8 19 Sudeste 50 Sudeste 0 -- -- 33
2019-03-28 16:00:00 16.3 24 Sudeste 58 Este 0 -- -- 30
2019-03-28 15:00:00 16.5 21 Sudeste 49 Sudeste 0 -- -- 34
2019-03-28 14:00:00 16.2 24 Sudeste 54 Este 0 -- -- 41
2019-03-28 13:00:00 15.9 22 Sudeste 47 Sudeste 0 -- -- 44
2019-03-28 12:00:00 15.5 16 Sudeste 45 Este 0 -- -- 44
2019-03-28 11:00:00 13.8 22 Sudeste 52 Sudeste 0 -- -- 47
2019-03-28 10:00:00 12.8 17 Sudeste 47 Sudeste 0 -- -- 48
2019-03-28 09:00:00 11 17 Sudeste 39 Este 0 -- -- 55
2019-03-28 08:00:00 8.5 7 Sudeste 26 Sudeste 0 -- -- 63
2019-03-28 07:00:00 8.3 9 Sudeste 25 Sudeste 0 -- -- 64
2019-03-28 06:00:00 8.5 6 Sudeste 28 Sudeste 0 -- -- 62
2019-03-28 05:00:00 8.8 6 Sudeste 40 Sudeste 0 -- -- 57
2019-03-28 04:00:00 9.5 15 Sudeste 38 Sudeste 0 -- -- 55
2019-03-28 03:00:00 9.8 16 Sudeste 38 Sudeste 0 -- -- 58
2019-03-28 02:00:00 10.4 12 Sudeste 47 Este 0 -- -- 63
2019-03-28 01:00:00 10.8 20 Sudeste 40 Sudeste 0 -- -- 66
2019-03-28 00:00:00 10.9 19 Sudeste 41 Este 0 -- -- 66
2019-03-27 23:00:00 10.7 16 Sudeste 33 Sudeste 0 -- -- 66
2019-03-27 22:00:00 10.4 8 Sudeste 35 Sudeste 0 -- -- 64
2019-03-27 21:00:00 10.5 8 Sudeste 25 Sudeste 0 -- -- 57
2019-03-27 20:00:00 11.6 10 Sudeste 32 Este 0 -- -- 49
2019-03-27 19:00:00 14 7 Sudeste 30 Sudeste 0 -- -- 41
2019-03-27 18:00:00 14.9 16 Sudeste 36 Sudeste 0 -- -- 37
2019-03-27 17:00:00 16.5 14 Sudeste 37 Sudeste 0 -- -- 34
2019-03-27 16:00:00 16.6 14 Sudeste 37 Este 0 -- -- 33
2019-03-27 15:00:00 16.8 17 Este 44 Este 0 -- -- 30
2019-03-27 14:00:00 16.9 15 Este 39 Este 0 -- -- 28
2019-03-27 13:00:00 15.7 21 Este 44 Este 0 -- -- 32
2019-03-27 12:00:00 15 21 Este 43 Este 0 -- -- 34
2019-03-27 11:00:00 13.9 21 Este 38 Este 0 -- -- 45
2019-03-27 10:00:00 13.6 6 Sudeste 33 Sudeste 0 -- -- 49
2019-03-27 09:00:00 11.6 8 Sudeste 38 Este 0 -- -- 53
2019-03-27 08:00:00 10 14 Sudeste 46 Sudeste 0 -- -- 53
2019-03-27 07:00:00 9.9 21 Sudeste 44 Sudeste 0 -- -- 53
2019-03-27 06:00:00 10.2 18 Sudeste 42 Sudeste 0 -- -- 51
2019-03-27 05:00:00 10 13 Sudeste 37 Sudeste 0 -- -- 54
2019-03-27 04:00:00 10.5 14 Sudeste 44 Sudeste 0 -- -- 58
2019-03-27 03:00:00 10.9 24 Sudeste 54 Sudeste 0 -- -- 56
2019-03-27 02:00:00 11 7 Sur 29 Sudeste 0 -- -- 59
2019-03-27 01:00:00 11.2 10 Sur 29 Sur 0 -- -- 59
2019-03-27 00:00:00 12.3 14 Sudeste 36 Sudeste 0 -- -- 66
2019-03-26 23:00:00 13.1 7 Sur 36 Sudeste 0 -- -- 66
2019-03-26 22:00:00 13.3 8 Sudeste 31 Sudeste 0 -- -- 64
2019-03-26 21:00:00 14 10 Sudeste 35 Sudeste 0 -- -- 58
2019-03-26 20:00:00 15.5 17 Sudeste 39 Sudeste 0 -- -- 47
2019-03-26 19:00:00 16.4 10 Sudeste 30 Sudeste 0 -- -- 44
2019-03-26 18:00:00 18.2 10 Sudeste 28 Sur 0 -- -- 39
2019-03-26 17:00:00 20.9 8 Sur 34 Sudeste 0 -- -- 36
2019-03-26 16:00:00 20.5 13 Este 31 Este 0 -- -- 35
2019-03-26 15:00:00 19.7 9 Sur 37 Sudeste 0 -- -- 38
2019-03-26 14:00:00 21.7 9 Sur 44 Sudeste 0 -- -- 37
2019-03-26 13:00:00 20.9 14 Sudeste 45 Sudeste 0 -- -- 41
2019-03-26 12:00:00 19.9 18 Sudeste 44 Este 0 -- -- 41
2019-03-26 11:00:00 19.4 18 Sudeste 44 Este 0 -- -- 42
2019-03-26 10:00:00 18.1 5 Sur 18 Sur 0 -- -- 45
2019-03-26 09:00:00 15.8 4 Sudeste 16 Este 0 -- -- 48
2019-03-26 08:00:00 14.4 6 Sudeste 15 Sudeste 0 -- -- 47
2019-03-26 07:00:00 14 5 Sudeste 21 Sudeste 0 -- -- 42
2019-03-26 06:00:00 13.9 6 Sudeste 16 Este 0 -- -- 43
2019-03-26 05:00:00 14.1 5 Sudeste 23 Sudeste 0 -- -- 46
2019-03-26 04:00:00 14.6 9 Sudeste 30 Sudeste 0 -- -- 47
2019-03-26 03:00:00 14.1 4 Sudeste 26 Este 0 -- -- 52
2019-03-26 02:00:00 13.6 3 Sur 18 Sudeste 0 -- -- 54
2019-03-26 01:00:00 13.9 5 Sudeste 21 Este 0 -- -- 54
2019-03-26 00:00:00 13.9 5 Sur 28 Sudeste 0 -- -- 54
2019-03-25 23:00:00 14.8 13 Sudeste 37 Sudeste 0 -- -- 51
2019-03-25 22:00:00 14.9 17 Sudeste 45 Sudeste 0 -- -- 52
2019-03-25 21:00:00 14.9 17 Sudeste 43 Sudeste 0 -- -- 52
2019-03-25 20:00:00 15.1 6 Sudeste 34 Sudeste 0 -- -- 53
2019-03-25 19:00:00 17 15 Sudeste 37 Sudeste 0 -- -- 48
2019-03-25 18:00:00 18.6 14 Sudeste 33 Este 0 -- -- 46
2019-03-25 17:00:00 19.8 15 Sudeste 39 Este 0 -- -- 43
2019-03-25 16:00:00 -- -- -- -- -- -- -- -- --
2019-03-25 15:00:00 -- -- -- -- -- -- -- -- --
2019-03-25 14:00:00 -- -- -- -- -- -- -- -- --
2019-03-25 13:00:00 -- -- -- -- -- -- -- -- --
2019-03-25 12:00:00 -- -- -- -- -- -- -- -- --
2019-03-25 11:00:00 -- -- -- -- -- -- -- -- --
2019-03-25 10:00:00 -- -- -- -- -- -- -- -- --
2019-03-25 09:00:00 -- -- -- -- -- -- -- -- --
2019-03-25 08:00:00 -- -- -- -- -- -- -- -- --
2019-03-25 07:00:00 -- -- -- -- -- -- -- -- --
2019-03-25 06:00:00 -- -- -- -- -- -- -- -- --
2019-03-25 05:00:00 -- -- -- -- -- -- -- -- --
2019-03-25 04:00:00 -- -- -- -- -- -- -- -- --
2019-03-25 03:00:00 -- -- -- -- -- -- -- -- --
2019-03-25 02:00:00 -- -- -- -- -- -- -- -- --
2019-03-25 01:00:00 -- -- -- -- -- -- -- -- --
2019-03-25 00:00:00 -- -- -- -- -- -- -- -- --